Overview Statistics Trail Chart Weather Telemetry Raw packets
 

This is the latest recevied packets stored in our database for station/object WBKW. If no packets are shown the sender has not sent any packets the latest 24 hours.

If you compare the raw packets with similar data from other websites it may differ (especially the path), the reason is that we are not collecting packets from the same APRS-IS servers. Each APRS-IS server performes duplicate filtering, and which packet that is considered to be a duplicate may differ depending on which APRS-IS server you receive your data from.

<< 1 2 3 >>

1778127168: PJUWX-0>APRPJW,TCPIP*,qAC,APRPJU:;WBKW *T#167,132,66,6,0,125,00000000

1778127167: PJUWX-0>APRPJW,TCPIP*,qAC,APRPJU:;WBKW *070400z0418.80N/11807.32EW150/006 9M2PJU Airports WX (Fair) | 32C 66%RH | Load:0.54,0.50,0.43 | D:80% M:95% | UT:1400 days

1778127167: PJUWX-0>APRPJW,TCPIP*,qAC,APRPJU:;WBKW *EQNS.0,1,-100,0,1,0,0,1,0,0,1,0,0,1,-100

1778127166: PJUWX-0>APRPJW,TCPIP*,qAC,APRPJU:;WBKW *UNIT.degC,%,kts,kts,degC

1778127166: PJUWX-0>APRPJW,TCPIP*,qAC,APRPJU:;WBKW *PARM.Temp,Humy,Wind,Gust,DewP

1778123538: PJUWX-0>APRPJW,TCPIP*,qAC,APRPJU:;WBKW *T#538,133,66,4,0,126,00000000

1778123538: PJUWX-0>APRPJW,TCPIP*,qAC,APRPJU:;WBKW *070300z0418.80N/11807.32EW230/004 9M2PJU Airports WX (Fair) | 33C 66%RH | Load:0.42,0.47,0.40 | D:80% M:93% | UT:1400 days

1778119940: PJUWX-0>APRPJW,TCPIP*,qAC,APRPJU:;WBKW *T#940,132,62,3,0,124,00000000

1778119939: PJUWX-0>APRPJW,TCPIP*,qAC,APRPJU:;WBKW *070200z0418.80N/11807.32EW000/003 9M2PJU Airports WX (Fair) | 32C 62%RH | Load:0.31,0.48,0.50 | D:80% M:93% | UT:1400 days

1778116339: PJUWX-0>APRPJW,TCPIP*,qAC,APRPJU:;WBKW *T#339,131,66,2,0,124,00000000

1778116339: PJUWX-0>APRPJW,TCPIP*,qAC,APRPJU:;WBKW *070100z0418.80N/11807.32EW000/002 9M2PJU Airports WX (Fair) | 31C 66%RH | Load:0.57,0.38,0.40 | D:80% M:93% | UT:1400 days

1778112767: PJUWX-0>APRPJW,TCPIP*,qAC,APRPJU:;WBKW *T#766,129,83,2,0,126,00000000

1778112767: PJUWX-0>APRPJW,TCPIP*,qAC,APRPJU:;WBKW *070000z0418.80N/11807.32EW000/002 9M2PJU Airports WX (Fair) | 29C 83%RH | Load:0.52,0.50,0.44 | D:80% M:95% | UT:1400 days

1778112766: PJUWX-0>APRPJW,TCPIP*,qAC,APRPJU:;WBKW *EQNS.0,1,-100,0,1,0,0,1,0,0,1,0,0,1,-100

1778112766: PJUWX-0>APRPJW,TCPIP*,qAC,APRPJU:;WBKW *UNIT.degC,%,kts,kts,degC

1778112765: PJUWX-0>APRPJW,TCPIP*,qAC,APRPJU:;WBKW *PARM.Temp,Humy,Wind,Gust,DewP

1778109137: PJUWX-0>APRPJW,TCPIP*,qAC,APRPJU:;WBKW *T#138,126,94,2,0,125,00000000

1778109137: PJUWX-0>APRPJW,TCPIP*,qAC,APRPJU:;WBKW *062300z0418.80N/11807.32EW000/002 9M2PJU Airports WX (Fair) | 26C 94%RH | Load:0.50,0.44,0.43 | D:80% M:96% | UT:1400 days

1778105539: PJUWX-0>APRPJW,TCPIP*,qAC,APRPJU:;WBKW *T#539,124,100,0,0,124,00000000

1778105539: PJUWX-0>APRPJW,TCPIP*,qAC,APRPJU:;WBKW *062200z0418.80N/11807.32EW000/000 9M2PJU Airports WX (Fair) | 24C 100%RH | Load:0.44,0.54,0.50 | D:80% M:97% | UT:1400 days

1778101939: PJUWX-0>APRPJW,TCPIP*,qAC,APRPJU:;WBKW *T#939,125,88,1,0,123,00000000

1778101939: PJUWX-0>APRPJW,TCPIP*,qAC,APRPJU:;WBKW *062100z0418.80N/11807.32EW000/001 9M2PJU Airports WX (Fair) | 25C 88%RH | Load:0.30,0.37,0.38 | D:80% M:96% | UT:1400 days

1778098368: PJUWX-0>APRPJW,TCPIP*,qAC,APRPJU:;WBKW *T#367,125,94,3,0,124,00000000

1778098368: PJUWX-0>APRPJW,TCPIP*,qAC,APRPJU:;WBKW *062000z0418.80N/11807.32EW000/003 9M2PJU Airports WX (Fair) | 25C 94%RH | Load:0.35,0.39,0.40 | D:80% M:95% | UT:1400 days

1778098367: PJUWX-0>APRPJW,TCPIP*,qAC,APRPJU:;WBKW *EQNS.0,1,-100,0,1,0,0,1,0,0,1,0,0,1,-100